Sunday, April 22, 2018, 1:06 AM GMT
Back to Local

CYOW, Ottawa Int'L. Ont.

Location: , , Canada Lat: 45.317
Local Time: 1:06 AM GMT ( 1:06 GMT) Lon: -75.667
Time Zone: GMT Elev: 380 ft

Show me the last for .
Show Coded

Time T Td Feel RH Dir Speed Gust Alt SLP Vis Weather Sky Remarks
2018-04-22 00:00 48 12 45 23 340° 7 - 30.32 30.34 15 CLR None
2018-04-21 23:00 52 10 - 18 320° 10 - 30.30 30.32 15 CLR None
2018-04-21 22:00 54 12 - 18 320° 8 - 30.30 30.31 15 CLR None
2018-04-21 21:00 54 12 - 18 270° 20 - 30.30 30.31 15 CLR None
2018-04-21 20:00 54 14 - 20 290° 16 24 30.30 30.32 15 CLR Wind Shift: 55 min
2018-04-21 19:00 52 16 - 23 270° 12 24 30.32 30.33 15 CLR None
2018-04-21 18:00 52 16 - 23 300° 14 21 30.33 30.35 15 CLR None
2018-04-21 17:00 48 16 41 26 290° 14 22 30.35 30.37 15 CLR None
2018-04-21 16:00 48 18 42 29 270° 16 - 30.37 30.39 15 CLR None
2018-04-21 15:00 45 16 37 30 300° 17 - 30.39 30.41 15 CLR None
2018-04-21 14:00 41 19 35 41 280° 10 - 30.40 30.42 15 CLR None
2018-04-21 13:00 39 21 34 48 310° 8 - 30.39 30.41 15 CLR None
2018-04-21 12:00 36 23 31 59 300° 6 - 30.38 30.40 15 CLR None
2018-04-21 11:00 30 23 24 74 290° 6 - 30.37 30.38 15 CLR None
2018-04-21 10:00 28 19 21 68 300° 7 - 30.35 30.37 15 CLR None
2018-04-21 09:00 30 21 25 68 270° 5 - 30.35 30.37 15 CLR None
2018-04-21 08:00 30 21 23 68 290° 7 - 30.35 30.37 15 CLR None
2018-04-21 07:00 32 21 26 63 290° 7 - 30.35 30.36 15 CLR None
2018-04-21 06:00 32 21 25 63 280° 8 - 30.34 30.36 15 CLR None
2018-04-21 05:00 36 21 32 55 290° 5 - 30.33 30.35 15 CLR None
2018-04-21 04:00 36 19 30 51 310° 7 - 30.32 30.34 15 CLR None
2018-04-21 03:00 37 21 31 51 320° 8 - 30.32 30.34 15 CLR None
2018-04-21 02:35 36 21 30 55 310° 7 - 30.32 30.33 15 CLR None
2018-04-21 02:00 41 21 36 44 340° 7 - 30.31 30.33 15 CLR None

Support USWX by starting your Amazon purchase here.